Time;durP1;ratioP1;P1;durP2;ratioP2;P2;SDS_P1;SDS_P2;PMS_P1;PMS_P2;Temp;Humidity;BMP_temperature;BMP_pressure;BME280_temperature;BME280_humidity;BME280_pressure;Samples;Min_cycle;Max_cycle;Signal;HPM_P1;HPM_P2
2022/07/23 00:02:21;;;;;;;16.35;13.35;;;;;;;18.08;69.14;97316.98;1805399;79;25785;-76
2022/07/23 00:04:47;;;;;;;17.95;13.20;;;;;;;18.10;69.25;97318.09;1805788;79;25644;-78
2022/07/23 00:07:14;;;;;;;20.43;13.90;;;;;;;18.04;69.35;97319.95;1805526;78;27349;-78
2022/07/23 00:09:40;;;;;;;18.17;13.58;;;;;;;17.98;69.47;97317.73;1805829;79;25779;-76
2022/07/23 00:12:07;;;;;;;16.73;13.78;;;;;;;17.97;69.58;97313.36;1805480;79;25705;-76
2022/07/23 00:14:33;;;;;;;16.27;13.48;;;;;;;18.02;69.66;97315.83;1805503;79;25829;-78
2022/07/23 00:17:00;;;;;;;15.75;13.13;;;;;;;18.04;69.67;97319.95;1805624;79;25640;-76
2022/07/23 00:19:27;;;;;;;16.82;12.98;;;;;;;18.02;69.63;97315.83;1797455;79;27520;-80
2022/07/23 00:21:53;;;;;;;16.27;13.80;;;;;;;17.98;69.68;97321.01;1796144;79;25806;-76
2022/07/23 00:24:20;;;;;;;16.00;13.13;;;;;;;17.93;69.78;97315.49;1796589;79;25703;-76
2022/07/23 00:26:46;;;;;;;20.10;13.22;;;;;;;17.93;69.91;97310.86;1796066;79;25816;-76
2022/07/23 00:29:13;;;;;;;16.93;12.47;;;;;;;17.96;69.79;97312.25;1796409;79;25699;-78
2022/07/23 00:31:39;;;;;;;17.48;13.10;;;;;;;17.95;69.68;97316.88;1796224;79;27442;-78
2022/07/23 00:34:06;;;;;;;15.85;13.32;;;;;;;17.94;69.74;97314.41;1796303;79;25753;-76
2022/07/23 00:36:33;;;;;;;15.30;12.88;;;;;;;17.93;69.78;97310.86;1796241;79;26779;-77
2022/07/23 00:38:59;;;;;;;14.58;12.75;;;;;;;17.93;69.76;97318.22;1796435;79;25729;-76
2022/07/23 00:41:26;;;;;;;20.00;13.32;;;;;;;17.90;69.74;97314.09;1796238;79;25579;-79
2022/07/23 00:43:52;;;;;;;15.15;11.88;;;;;;;17.87;69.72;97317.34;1796277;79;27351;-77
2022/07/23 00:46:21;;;;;;;18.00;12.73;;;;;;;17.81;69.76;97314.30;1796166;79;25746;-76
2022/07/23 00:48:47;;;;;;;18.15;13.35;;;;;;;17.78;69.76;97319.45;1796342;79;25710;-76
2022/07/23 00:51:15;;;;;;;17.45;13.28;;;;;;;17.74;69.87;97322.43;1796162;79;25823;-77
2022/07/23 00:53:42;;;;;;;15.38;13.43;;;;;;;17.71;70.00;97317.48;1796528;79;25256;-77
2022/07/23 00:56:10;;;;;;;15.88;12.82;;;;;;;17.68;70.02;97316.09;1795812;79;27447;-76
2022/07/23 00:58:38;;;;;;;17.10;12.30;;;;;;;17.67;70.00;97308.98;1796376;79;25791;-79
2022/07/23 01:01:05;;;;;;;16.80;12.78;;;;;;;17.64;70.03;97315.77;1796122;78;26841;-77
2022/07/23 01:03:31;;;;;;;14.75;13.15;;;;;;;17.63;70.13;97320.12;1796512;79;25675;-75
2022/07/23 01:05:59;;;;;;;15.20;12.45;;;;;;;17.62;70.16;97313.01;1796407;79;25680;-76
2022/07/23 01:08:25;;;;;;;17.23;13.15;;;;;;;17.59;70.17;97318.44;1796293;79;27424;-76
2022/07/23 01:10:52;;;;;;;20.37;13.55;;;;;;;17.57;70.13;97326.05;1796150;79;25766;-76
2022/07/23 01:13:19;;;;;;;15.13;12.35;;;;;;;17.54;70.23;97323.83;1796336;79;25755;-76
2022/07/23 01:15:45;;;;;;;15.75;12.37;;;;;;;17.50;70.30;97313.70;1795931;79;25888;-76
2022/07/23 01:18:12;;;;;;;16.82;11.12;;;;;;;17.47;70.35;97313.67;1797389;79;25616;-76
2022/07/23 01:20:39;;;;;;;14.33;11.68;;;;;;;17.44;70.40;97311.45;1796406;79;27428;-76
2022/07/23 01:23:05;;;;;;;14.70;11.20;;;;;;;17.42;70.41;97314.15;1801940;79;25679;-76
2022/07/23 01:25:32;;;;;;;13.53;11.85;;;;;;;17.40;70.44;97315.77;1802000;79;25672;-76
2022/07/23 01:27:59;;;;;;;14.98;12.10;;;;;;;17.35;70.42;97314.37;1802071;79;25764;-79
2022/07/23 01:30:25;;;;;;;16.95;12.58;;;;;;;17.34;70.50;97318.17;1801959;79;25253;-79
2022/07/23 01:32:52;;;;;;;15.03;11.93;;;;;;;17.31;70.55;97315.95;1801949;79;28144;-76
2022/07/23 01:35:18;;;;;;;13.68;11.93;;;;;;;17.26;70.58;97317.27;1796295;79;25694;-78
2022/07/23 01:37:45;;;;;;;16.35;12.60;;;;;;;17.19;70.68;97324.81;1801984;79;25704;-75
2022/07/23 01:40:12;;;;;;;14.15;11.63;;;;;;;17.17;70.82;97324.24;1773417;79;26822;-76
2022/07/23 01:42:38;;;;;;;15.90;12.10;;;;;;;17.16;70.93;97321.23;1769962;81;25894;-77
2022/07/23 01:45:06;;;;;;;16.55;12.60;;;;;;;17.17;70.92;97312.80;1769726;81;28174;-76
2022/07/23 01:47:33;;;;;;;13.80;12.40;;;;;;;17.14;70.91;97316.05;1770102;81;25718;-76
2022/07/23 01:49:59;;;;;;;14.25;12.58;;;;;;;17.13;70.97;97315.77;1770081;81;25789;-77
2022/07/23 01:52:26;;;;;;;17.65;13.08;;;;;;;17.11;70.98;97318.45;1770236;81;25784;-76
2022/07/23 01:54:52;;;;;;;14.63;12.18;;;;;;;17.05;71.04;97318.09;1770364;81;25810;-76
2022/07/23 01:57:19;;;;;;;15.40;12.78;;;;;;;17.03;71.09;97319.71;1770503;81;27947;-77
2022/07/23 01:59:45;;;;;;;15.58;12.00;;;;;;;17.02;71.11;97313.17;1770259;81;25811;-76
2022/07/23 02:02:12;;;;;;;15.48;13.43;;;;;;;17.00;71.17;97314.79;1770047;81;25676;-76
2022/07/23 02:04:38;;;;;;;13.28;11.85;;;;;;;16.98;71.28;97307.94;1770456;81;26488;-75
2022/07/23 02:07:06;;;;;;;14.20;12.55;;;;;;;16.90;71.25;97311.95;1770274;81;25740;-77
2022/07/23 02:09:33;;;;;;;16.10;12.60;;;;;;;16.81;71.34;97311.54;1770316;81;27422;-76
2022/07/23 02:11:59;;;;;;;13.43;12.07;;;;;;;16.78;71.53;97316.16;1770259;81;25663;-76
2022/07/23 02:14:27;;;;;;;15.23;12.20;;;;;;;16.82;71.66;97314.55;1770383;81;25245;-76
2022/07/23 02:16:53;;;;;;;14.83;11.83;;;;;;;16.86;71.69;97314.34;1770405;81;25871;-77
2022/07/23 02:19:20;;;;;;;13.25;11.95;;;;;;;16.89;71.68;97317.94;1770240;80;25731;-79
2022/07/23 02:21:46;;;;;;;14.15;12.53;;;;;;;16.93;71.63;97324.51;1770530;81;27426;-77
2022/07/23 02:24:13;;;;;;;15.10;12.35;;;;;;;16.93;71.59;97324.51;1770523;81;25689;-79
2022/07/23 02:26:40;;;;;;;15.60;11.93;;;;;;;16.93;71.62;97314.14;1770532;81;25724;-79
2022/07/23 02:29:06;;;;;;;15.30;12.23;;;;;;;16.87;71.64;97318.72;1770619;81;25693;-76
2022/07/23 02:31:34;;;;;;;15.65;12.28;;;;;;;16.88;71.73;97316.82;1770646;81;25659;-76
2022/07/23 02:34:01;;;;;;;16.15;12.37;;;;;;;16.88;71.75;97315.45;1770605;81;28023;-79
2022/07/23 02:36:28;;;;;;;14.75;11.63;;;;;;;16.88;71.70;97313.56;1770341;80;25711;-79
2022/07/23 02:38:54;;;;;;;15.68;13.40;;;;;;;16.88;71.73;97305.91;1770352;81;25767;-76
2022/07/23 02:41:21;;;;;;;14.60;11.93;;;;;;;16.83;71.67;97308.03;1770596;81;25750;-78
2022/07/23 02:43:47;;;;;;;14.58;11.40;;;;;;;16.81;71.73;97309.35;1770529;81;25680;-76
2022/07/23 02:46:14;;;;;;;17.30;12.23;;;;;;;16.82;71.76;97309.64;1770706;81;27425;-77
2022/07/23 02:48:40;;;;;;;13.20;11.90;;;;;;;16.82;71.75;97305.02;1770432;81;25736;-76
2022/07/23 02:51:07;;;;;;;16.10;11.97;;;;;;;16.83;71.71;97305.84;1770626;81;25653;-79
2022/07/23 02:53:33;;;;;;;13.03;11.73;;;;;;;16.81;71.67;97304.72;1770625;81;25727;-76
2022/07/23 02:56:00;;;;;;;16.60;11.18;;;;;;;16.82;71.65;97306.91;1770573;81;25686;-77
2022/07/23 02:58:27;;;;;;;12.98;11.12;;;;;;;16.80;71.61;97313.15;1770270;81;27416;-76
2022/07/23 03:00:53;;;;;;;12.43;10.98;;;;;;;16.77;71.61;97311.78;1770351;81;25730;-77
2022/07/23 03:03:20;;;;;;;14.87;11.83;;;;;;;16.76;71.58;97307.41;1770514;81;25738;-77
2022/07/23 03:05:47;;;;;;;12.20;10.98;;;;;;;16.75;71.52;97311.20;1770541;81;25721;-77
2022/07/23 03:08:14;;;;;;;18.05;11.73;;;;;;;16.73;71.51;97311.98;1770373;81;25720;-76
2022/07/23 03:10:40;;;;;;;15.43;11.78;;;;;;;16.69;71.50;97313.56;1770426;80;27439;-79
2022/07/23 03:13:07;;;;;;;14.38;11.35;;;;;;;16.68;71.58;97314.63;1770457;81;25724;-77
2022/07/23 03:15:34;;;;;;;15.05;12.10;;;;;;;16.65;71.66;97311.61;1770170;81;25680;-76
2022/07/23 03:18:01;;;;;;;14.10;11.10;;;;;;;16.64;71.63;97312.15;1770215;81;25870;-76
2022/07/23 03:20:27;;;;;;;15.83;11.90;;;;;;;16.63;71.73;97311.86;1770190;80;25715;-76
2022/07/23 03:22:54;;;;;;;17.45;12.95;;;;;;;16.61;71.79;97309.89;1770365;81;27411;-76
2022/07/23 03:25:20;;;;;;;15.08;12.03;;;;;;;16.57;71.88;97313.64;1770362;81;25754;-76
2022/07/23 03:27:47;;;;;;;16.20;12.28;;;;;;;16.55;72.00;97314.43;1770628;81;25648;-76
2022/07/23 03:30:14;;;;;;;14.13;11.40;;;;;;;16.55;72.07;97306.80;1770569;81;25783;-77
2022/07/23 03:32:40;;;;;;;14.50;11.70;;;;;;;16.56;72.06;97306.55;1770378;80;25711;-77
2022/07/23 03:35:08;;;;;;;15.25;12.13;;;;;;;16.57;72.08;97307.37;1770603;81;26480;-78
2022/07/23 03:37:35;;;;;;;12.85;11.57;;;;;;;16.57;72.12;97307.37;1770441;81;25424;-77
2022/07/23 03:40:01;;;;;;;14.10;11.57;;;;;;;16.60;72.21;97309.59;1770285;81;25268;-79
2022/07/23 03:42:28;;;;;;;16.87;11.50;;;;;;;16.62;72.25;97311.57;1770217;81;43659;-78
2022/07/23 03:44:55;;;;;;;16.30;12.00;;;;;;;16.63;72.26;97310.50;1770242;81;25631;-78
2022/07/23 03:47:21;;;;;;;14.53;12.58;;;;;;;16.62;72.31;97310.72;1770637;81;27596;-78
2022/07/23 03:49:49;;;;;;;14.03;12.23;;;;;;;16.60;72.39;97308.23;1770445;80;25774;-78
2022/07/23 03:52:16;;;;;;;15.20;12.25;;;;;;;16.62;72.47;97312.94;1770474;81;25679;-78
2022/07/23 03:54:42;;;;;;;17.67;13.58;;;;;;;16.63;72.45;97310.50;1770506;81;25714;-78
2022/07/23 03:57:09;;;;;;;13.98;12.15;;;;;;;16.64;72.45;97317.59;1770204;81;25327;-78
2022/07/23 03:59:36;;;;;;;14.23;12.33;;;;;;;16.65;72.48;97317.89;1770480;81;27438;-78
2022/07/23 04:02:02;;;;;;;13.98;12.28;;;;;;;16.67;72.51;97319.80;1770377;80;25893;-78
2022/07/23 04:04:29;;;;;;;14.40;11.93;;;;;;;16.69;72.53;97312.73;1770491;81;26363;-78
2022/07/23 04:06:55;;;;;;;15.00;12.28;;;;;;;16.69;72.60;97316.28;1770383;81;25690;-77
2022/07/23 04:09:22;;;;;;;22.75;12.35;;;;;;;16.71;72.62;97310.59;1770500;81;25673;-76
2022/07/23 04:11:49;;;;;;;13.78;12.35;;;;;;;16.74;72.68;97315.00;1770375;81;27404;-76
2022/07/23 04:14:15;;;;;;;15.58;13.05;;;;;;;16.75;72.68;97312.56;1770397;81;25718;-76
2022/07/23 04:16:42;;;;;;;14.18;12.68;;;;;;;16.79;72.67;97315.59;1770439;81;25727;-76
2022/07/23 04:19:09;;;;;;;20.48;14.15;;;;;;;16.82;72.76;97311.00;1770392;80;25654;-76
2022/07/23 04:21:35;;;;;;;14.83;13.05;;;;;;;16.83;72.79;97302.58;1770123;81;25968;-77
2022/07/23 04:24:02;;;;;;;16.65;13.35;;;;;;;16.88;72.89;97303.19;1770347;81;28186;-76
2022/07/23 04:26:28;;;;;;;16.42;13.35;;;;;;;16.90;72.94;97304.56;1770369;81;25742;-76
2022/07/23 04:28:55;;;;;;;14.90;13.30;;;;;;;16.91;72.93;97299.39;1770388;81;25737;-76
2022/07/23 04:31:21;;;;;;;18.05;14.28;;;;;;;16.99;72.86;97301.41;1770478;81;26529;-76
2022/07/23 04:33:48;;;;;;;16.97;14.07;;;;;;;17.03;72.93;97298.44;1770471;81;25243;-76
2022/07/23 04:36:14;;;;;;;16.05;13.75;;;;;;;17.08;72.93;97295.24;1770530;81;28132;-76
2022/07/23 04:38:41;;;;;;;15.20;12.93;;;;;;;17.13;72.97;97294.48;1770320;81;25789;-76
2022/07/23 04:41:07;;;;;;;18.32;13.13;;;;;;;17.17;73.05;97292.34;1770492;81;25674;-76
2022/07/23 04:43:34;;;;;;;16.02;13.75;;;;;;;17.22;72.99;97290.22;1770235;81;26426;-76
2022/07/23 04:46:00;;;;;;;18.87;15.63;;;;;;;17.25;72.97;97283.72;1770074;81;25865;-76
2022/07/23 04:48:27;;;;;;;16.00;13.50;;;;;;;17.31;72.95;97285.94;1770354;81;28029;-76
2022/07/23 04:50:54;;;;;;;18.48;13.90;;;;;;;17.37;73.00;97282.73;1770207;81;25690;-78
2022/07/23 04:53:20;;;;;;;16.60;13.03;;;;;;;17.45;73.01;97282.27;1770376;80;25283;-77
2022/07/23 04:55:47;;;;;;;15.23;12.88;;;;;;;17.49;72.98;97279.31;1770372;81;25706;-77
2022/07/23 04:58:13;;;;;;;16.17;13.72;;;;;;;17.56;72.93;97280.73;1770464;81;25695;-77
2022/07/23 05:00:40;;;;;;;18.70;14.05;;;;;;;17.62;72.90;97283.81;1770387;81;27394;-77
2022/07/23 05:03:06;;;;;;;18.92;15.03;;;;;;;17.69;72.91;97275.97;1770265;81;25640;-76
2022/07/23 05:05:33;;;;;;;16.02;13.88;;;;;;;17.73;72.94;97264.28;1770454;80;25704;-77
2022/07/23 05:07:59;;;;;;;15.05;13.18;;;;;;;17.81;73.00;97271.98;1770350;81;25836;-78
2022/07/23 05:10:26;;;;;;;20.62;13.80;;;;;;;17.90;72.92;97272.31;1770451;81;25635;-78
2022/07/23 05:12:53;;;;;;;15.15;13.43;;;;;;;17.95;72.83;97265.00;1770335;81;27424;-78
2022/07/23 05:15:19;;;;;;;15.15;13.48;;;;;;;18.04;72.82;97270.79;1770460;81;25675;-78
2022/07/23 05:17:46;;;;;;;15.48;13.32;;;;;;;18.11;72.67;97270.04;1770360;81;25680;-78
2022/07/23 05:20:13;;;;;;;16.45;13.25;;;;;;;18.16;72.63;97278.25;1767775;80;25778;-78
2022/07/23 05:22:41;;;;;;;16.70;14.55;;;;;;;18.24;72.69;97278.29;1764446;81;25262;-78
2022/07/23 05:25:08;;;;;;;15.83;13.38;;;;;;;18.31;72.68;97279.72;1765068;81;27368;-78
2022/07/23 05:27:34;;;;;;;20.15;14.58;;;;;;;18.38;72.66;97269.09;1764475;81;25756;-78
2022/07/23 05:30:01;;;;;;;15.60;13.05;;;;;;;18.45;72.73;97265.59;1764874;81;25251;-78
2022/07/23 05:32:27;;;;;;;17.00;13.68;;;;;;;18.51;72.84;97268.62;1764641;81;25693;-78
2022/07/23 05:34:54;;;;;;;14.73;13.15;;;;;;;18.58;72.89;97266.52;1765098;81;25892;-78
2022/07/23 05:37:20;;;;;;;13.83;12.35;;;;;;;18.65;72.83;97273.92;1764714;81;27403;-78
2022/07/23 05:39:47;;;;;;;16.77;13.80;;;;;;;18.71;72.83;97263.31;1764800;81;25605;-78
2022/07/23 05:42:13;;;;;;;16.40;13.60;;;;;;;18.77;72.70;97262.23;1764605;81;25265;-78
2022/07/23 05:44:40;;;;;;;15.60;12.63;;;;;;;18.85;72.65;97262.25;1764911;81;26320;-78
2022/07/23 05:47:07;;;;;;;14.87;12.58;;;;;;;18.93;72.47;97254.37;1765025;81;25734;-77
2022/07/23 05:49:33;;;;;;;17.90;13.05;;;;;;;19.01;72.31;97263.95;1774212;79;27414;-78
2022/07/23 05:52:04;;;;;;;13.85;12.25;;;;;;;19.09;72.12;97262.06;1796285;79;25699;-78
2022/07/23 05:54:30;;;;;;;13.60;12.20;;;;;;;19.19;71.97;97255.81;1729494;82;25856;-80
2022/07/23 05:56:57;;;;;;;13.58;12.20;;;;;;;19.26;71.91;97246.25;1720845;82;25736;-80
2022/07/23 05:59:23;;;;;;;15.30;12.78;;;;;;;19.36;72.02;97250.91;1728346;82;25342;-80
2022/07/23 06:01:50;;;;;;;15.05;12.18;;;;;;;19.45;72.06;97250.64;1716555;81;27447;-80
2022/07/23 06:04:16;;;;;;;16.73;12.50;;;;;;;19.55;72.02;97249.34;1727865;82;25697;-77
2022/07/23 06:06:43;;;;;;;16.15;12.13;;;;;;;19.64;72.07;97235.92;1695455;83;25846;-79
2022/07/23 06:09:13;;;;;;;15.95;12.23;;;;;;;19.73;72.06;97235.64;1756648;81;26496;-78
2022/07/23 06:11:38;;;;;;;13.00;11.38;;;;;;;19.84;71.99;97235.09;1730262;82;25844;-77
2022/07/23 06:14:05;;;;;;;17.87;12.65;;;;;;;19.92;71.63;97227.17;1730245;82;28038;-80
2022/07/23 06:16:32;;;;;;;15.38;11.55;;;;;;;20.03;71.35;97229.34;1699772;83;25874;-80
2022/07/23 06:18:59;;;;;;;14.87;11.88;;;;;;;20.13;71.08;97225.21;1741042;81;25317;-80
2022/07/23 06:21:25;;;;;;;16.70;12.15;;;;;;;20.21;70.96;97219.16;1760037;80;25760;-77
2022/07/23 06:23:52;;;;;;;13.90;12.28;;;;;;;20.32;70.85;97216.66;1729326;81;25855;-80
2022/07/23 06:26:18;;;;;;;17.37;11.97;;;;;;;20.42;70.70;97220.77;1725008;82;28361;-77
2022/07/23 06:28:45;;;;;;;13.43;11.70;;;;;;;20.54;70.57;97221.01;1712322;83;26220;-81
2022/07/23 06:31:11;;;;;;;16.97;11.63;;;;;;;20.67;70.45;97219.05;1712451;83;25822;-78
2022/07/23 06:33:38;;;;;;;15.00;10.78;;;;;;;20.79;70.25;97215.42;1735119;82;26411;-79
2022/07/23 06:36:05;;;;;;;13.70;10.45;;;;;;;20.90;69.97;97217.02;1724961;83;25496;-80
2022/07/23 06:38:31;;;;;;;15.25;10.93;;;;;;;21.02;69.77;97213.94;1712481;83;28071;-78
2022/07/23 06:40:58;;;;;;;14.75;11.22;;;;;;;21.12;69.49;97204.30;1712154;83;25804;-79
2022/07/23 06:43:24;;;;;;;11.65;10.38;;;;;;;21.24;69.33;97199.87;1735094;82;25813;-77
2022/07/23 06:45:51;;;;;;;16.48;11.15;;;;;;;21.36;68.98;97195.66;1724769;81;26372;-80
2022/07/23 06:48:18;;;;;;;13.03;10.65;;;;;;;21.50;68.89;97195.81;1712025;83;25752;-78
2022/07/23 06:50:45;;;;;;;12.30;10.53;;;;;;;21.62;68.71;97194.89;1735352;79;27427;-78
2022/07/23 06:53:11;;;;;;;11.83;10.53;;;;;;;21.74;68.52;97191.22;1805606;79;26255;-79
2022/07/23 06:55:38;;;;;;;11.73;10.55;;;;;;;21.87;68.43;97196.05;1805213;79;25704;-78
2022/07/23 06:58:05;;;;;;;14.10;10.58;;;;;;;22.12;68.30;97191.45;1805658;79;25721;-78
2022/07/23 07:00:32;;;;;;;12.68;10.40;;;;;;;22.12;68.30;97191.45;1805900;79;25741;-79
2022/07/23 07:02:59;;;;;;;12.55;10.15;;;;;;;22.23;67.98;97187.48;1805560;79;27475;-80
2022/07/23 07:05:27;;;;;;;11.43;10.00;;;;;;;22.47;67.33;97185.56;1805500;79;25655;-78
2022/07/23 07:07:57;;;;;;;11.95;10.18;;;;;;;22.47;67.33;97185.56;1805672;79;25806;-79
2022/07/23 07:10:23;;;;;;;11.50;10.30;;;;;;;22.60;67.33;97182.66;1805670;79;25618;-80
2022/07/23 07:12:50;;;;;;;14.20;10.95;;;;;;;22.74;67.57;97180.02;1805845;79;25748;-78
2022/07/23 07:15:16;;;;;;;15.10;11.40;;;;;;;22.85;67.41;97178.80;1805715;79;27349;-79
2022/07/23 07:17:43;;;;;;;16.90;10.98;;;;;;;22.96;67.09;97181.67;1805582;79;25825;-79
2022/07/23 07:20:11;;;;;;;12.68;10.32;;;;;;;23.08;66.95;97182.05;1803003;79;25767;-80
2022/07/23 07:22:37;;;;;;;14.55;10.30;;;;;;;23.18;66.68;97181.94;1790715;80;26540;-78
2022/07/23 07:25:06;;;;;;;14.68;11.25;;;;;;;23.31;66.57;97177.59;1791166;80;25254;-79
2022/07/23 07:27:32;;;;;;;13.00;10.15;;;;;;;23.43;66.14;97175.20;1827366;78;28087;-79
2022/07/23 07:29:59;;;;;;;14.93;10.25;;;;;;;23.55;65.92;97165.94;1827130;78;25761;-81
2022/07/23 07:32:25;;;;;;;17.05;10.85;;;;;;;23.68;65.52;97164.36;1827236;78;25708;-79
2022/07/23 07:34:52;;;;;;;14.25;10.35;;;;;;;23.80;65.15;97159.19;1827223;78;25728;-79
2022/07/23 07:37:19;;;;;;;10.78;9.68;;;;;;;23.94;65.18;97150.95;1827212;78;25803;-79
2022/07/23 07:39:45;;;;;;;11.83;9.85;;;;;;;24.08;64.59;97146.84;1826958;78;28187;-79
2022/07/23 07:42:12;;;;;;;14.65;10.03;;;;;;;24.20;64.35;97152.13;1827111;78;25202;-78
2022/07/23 07:44:38;;;;;;;14.87;10.05;;;;;;;24.33;63.86;97147.77;1827443;78;25317;-79
2022/07/23 07:47:05;;;;;;;12.70;9.08;;;;;;;24.50;63.52;97151.31;1827027;78;25733;-79
2022/07/23 07:49:32;;;;;;;13.30;9.65;;;;;;;24.68;63.57;97149.80;1827216;78;25229;-79
2022/07/23 07:51:58;;;;;;;11.18;9.93;;;;;;;24.97;63.67;97147.30;1827164;78;27424;-83
2022/07/23 07:54:25;;;;;;;10.03;8.98;;;;;;;25.36;63.61;97147.46;1827126;78;25668;-80
2022/07/23 07:56:51;;;;;;;13.22;9.20;;;;;;;25.75;62.54;97140.47;1826918;77;25708;-80
2022/07/23 07:59:18;;;;;;;11.83;9.50;;;;;;;26.19;61.93;97144.56;1827224;78;25670;-80
2022/07/23 08:01:45;;;;;;;11.88;8.50;;;;;;;26.70;61.00;97150.62;1827234;78;26256;-80
2022/07/23 08:04:11;;;;;;;10.82;9.23;;;;;;;27.17;60.37;97148.38;1827184;78;27483;-80
2022/07/23 08:06:38;;;;;;;12.40;9.23;;;;;;;27.68;59.66;97149.55;1827097;78;25664;-81
2022/07/23 08:09:04;;;;;;;11.43;8.25;;;;;;;28.17;58.44;97144.55;1827162;78;25675;-81
2022/07/23 08:11:31;;;;;;;11.57;8.80;;;;;;;28.63;57.46;97146.51;1827288;78;25747;-83
2022/07/23 08:13:57;;;;;;;11.97;8.33;;;;;;;29.10;55.64;97145.06;1826913;78;25637;-83
2022/07/23 08:16:24;;;;;;;15.50;9.90;;;;;;;29.48;55.49;97147.14;1826955;78;28229;-84
2022/07/23 08:18:51;;;;;;;11.90;8.50;;;;;;;29.92;54.91;97144.80;1827183;78;25459;-82
2022/07/23 08:21:17;;;;;;;9.60;8.00;;;;;;;30.32;53.83;97148.61;1827024;76;25706;-85
2022/07/23 08:23:44;;;;;;;12.63;8.68;;;;;;;30.68;52.72;97145.66;1826879;78;25702;-81
2022/07/23 08:26:11;;;;;;;10.48;8.18;;;;;;;31.03;52.19;97151.01;1827252;78;25385;-82
2022/07/23 08:28:38;;;;;;;10.68;8.25;;;;;;;31.37;51.41;97152.48;1827101;78;27513;-81
2022/07/23 08:31:05;;;;;;;9.25;8.25;;;;;;;31.64;50.30;97149.50;1827052;78;25725;-81
2022/07/23 08:33:32;;;;;;;12.40;8.40;;;;;;;31.88;49.96;97157.57;1826991;77;25688;-82
2022/07/23 08:36:00;;;;;;;12.90;8.23;;;;;;;32.14;49.75;97154.50;1827154;78;25726;-83
2022/07/23 08:38:28;;;;;;;10.40;8.30;;;;;;;32.45;48.87;97152.97;1827319;78;25692;-81
2022/07/23 08:40:59;;;;;;;9.90;7.92;;;;;;;32.78;48.54;97145.63;1827074;78;28312;-82
2022/07/23 08:43:30;;;;;;;16.15;8.38;;;;;;;33.17;47.98;97145.98;1827227;78;25408;-82
2022/07/23 08:45:59;;;;;;;8.30;7.47;;;;;;;33.53;47.21;97148.19;1827280;78;25654;-81
2022/07/23 08:48:28;;;;;;;8.90;8.00;;;;;;;33.88;46.20;97147.56;1827346;78;25849;-81
2022/07/23 08:50:58;;;;;;;9.40;7.55;;;;;;;34.18;45.14;97144.11;1829682;78;25737;-84
2022/07/23 08:53:27;;;;;;;9.28;7.58;;;;;;;34.51;44.24;97148.58;1829519;78;27404;-82
2022/07/23 08:56:01;;;;;;;7.40;6.80;;;;;;;34.85;43.61;97136.96;1829680;77;25640;-84
2022/07/23 08:58:28;;;;;;;6.72;6.12;;;;;;;35.17;42.46;97134.63;1829756;78;25758;-81
2022/07/23 09:00:56;;;;;;;8.23;6.83;;;;;;;35.47;40.83;97136.10;1829656;78;25736;-82
2022/07/23 09:03:29;;;;;;;7.00;6.42;;;;;;;35.71;39.44;97128.59;1829595;78;25728;-82
2022/07/23 09:05:58;;;;;;;8.75;6.75;;;;;;;35.95;39.46;97128.70;1753212;80;27366;-82
2022/07/23 09:08:38;;;;;;;8.50;6.97;;;;;;;36.21;38.65;97115.74;1758503;80;25773;-84
2022/07/23 09:11:11;;;;;;;7.30;6.45;;;;;;;36.36;38.69;97112.69;1668367;85;25878;-82
2022/07/23 09:13:43;;;;;;;11.80;6.35;;;;;;;36.48;38.25;97110.19;1669502;85;25838;-80
2022/07/23 09:16:29;;;;;;;7.20;6.50;;;;;;;36.64;37.51;97110.74;1669537;85;25828;-81
2022/07/23 09:19:04;;;;;;;8.75;6.37;;;;;;;36.78;36.45;97112.30;1669680;85;27590;-81
2022/07/23 09:21:35;;;;;;;9.25;6.20;;;;;;;36.94;35.70;97097.15;1669351;85;25803;-81
2022/07/23 09:24:11;;;;;;;6.33;5.73;;;;;;;37.10;35.31;97094.83;1669863;85;25910;-80
2022/07/23 09:26:53;;;;;;;6.95;6.22;;;;;;;37.22;35.06;97093.12;1606388;89;26389;-81
2022/07/23 09:29:24;;;;;;;7.05;6.12;;;;;;;37.33;34.61;97098.20;1606570;89;25758;-81
2022/07/23 09:31:56;;;;;;;7.80;6.60;;;;;;;37.39;33.82;97100.86;1606604;89;32596;-80
2022/07/23 09:34:33;;;;;;;7.25;6.53;;;;;;;37.52;33.45;97108.97;1606083;89;25928;-81
2022/07/23 09:37:15;;;;;;;7.05;6.45;;;;;;;37.60;32.73;97102.97;1606607;89;25801;-80
2022/07/23 09:39:43;;;;;;;7.03;6.28;;;;;;;37.63;32.75;97106.44;1605926;89;25688;-79
2022/07/23 09:42:24;;;;;;;7.05;6.25;;;;;;;37.70;32.36;97111.27;1605841;89;25993;-80
2022/07/23 09:44:54;;;;;;;7.22;6.53;;;;;;;37.74;32.27;97099.44;1606479;89;27432;-80
2022/07/23 09:47:23;;;;;;;7.95;6.40;;;;;;;37.83;31.67;97105.49;1610228;83;25845;-80
2022/07/23 09:50:08;;;;;;;7.87;6.87;;;;;;;37.87;31.51;97111.15;1719887;83;26643;-80
2022/07/23 09:52:44;;;;;;;9.78;6.80;;;;;;;37.82;31.05;97101.87;1719570;83;26535;-80
2022/07/23 09:55:11;;;;;;;7.42;6.72;;;;;;;37.83;31.27;97102.08;1714344;81;26936;-81
2022/07/23 10:00:12;;;;;;;7.60;6.67;;;;;;;37.80;31.04;97097.83;1613354;88;25757;-80
2022/07/23 10:02:40;;;;;;;7.25;6.20;;;;;;;37.69;31.05;97093.57;1643454;85;25950;-80
2022/07/23 10:05:08;;;;;;;10.05;6.90;;;;;;;37.63;31.09;97094.36;1676065;85;26492;-81
2022/07/23 10:07:40;;;;;;;6.53;5.92;;;;;;;37.56;31.16;97085.88;1676142;85;25845;-80
2022/07/23 10:10:08;;;;;;;9.43;6.83;;;;;;;37.41;30.54;97088.62;1676133;85;27625;-80
2022/07/23 10:15:03;;;;;;;7.28;6.67;;;;;;;37.47;30.87;97084.20;1676223;85;25863;-80
2022/07/23 10:17:30;;;;;;;8.70;6.75;;;;;;;37.49;30.91;97081.80;1692920;82;26701;-79
2022/07/23 10:19:58;;;;;;;8.83;7.33;;;;;;;37.59;30.33;97077.41;1696074;82;25900;-80
2022/07/23 10:22:34;;;;;;;7.33;6.67;;;;;;;37.67;29.99;97079.70;1695682;83;27648;-80
2022/07/23 10:25:32;;;;;;;7.47;6.05;;;;;;;37.70;29.80;97072.66;1695718;84;25258;-79
2022/07/23 10:28:32;;;;;;;7.90;6.60;;;;;;;37.73;30.11;97073.87;1633378;87;25820;-79
2022/07/23 10:31:19;;;;;;;7.60;6.58;;;;;;;37.86;29.80;97073.72;1632351;87;25823;-79
2022/07/23 10:34:09;;;;;;;6.97;6.33;;;;;;;37.96;29.37;97064.48;1628110;87;25843;-78
2022/07/23 10:37:01;;;;;;;8.33;6.20;;;;;;;37.98;29.15;97069.72;1630121;86;27489;-79
2022/07/23 10:39:35;;;;;;;7.67;6.60;;;;;;;38.05;28.86;97067.72;1626969;87;25822;-79
2022/07/23 10:42:17;;;;;;;7.05;6.40;;;;;;;38.07;28.50;97063.91;1633289;87;25823;-80
2022/07/23 10:44:47;;;;;;;9.15;6.92;;;;;;;38.13;28.45;97058.13;1633329;86;26537;-79
2022/07/23 10:47:42;;;;;;;7.33;6.33;;;;;;;38.20;28.76;97055.90;1548299;92;25816;-79
2022/07/23 10:50:30;;;;;;;8.88;6.47;;;;;;;38.20;28.79;97056.70;1548378;92;27487;-78
2022/07/23 10:53:12;;;;;;;7.40;6.70;;;;;;;38.16;28.47;97055.89;1548320;91;25884;-79
2022/07/23 10:55:47;;;;;;;6.70;6.03;;;;;;;38.28;28.25;97059.55;1548445;92;25907;-78
2022/07/23 10:58:25;;;;;;;7.25;6.55;;;;;;;38.44;28.29;97052.89;1570330;91;25790;-79
2022/07/23 11:00:51;;;;;;;7.90;7.17;;;;;;;38.57;27.82;97046.28;1573226;91;25803;-81
2022/07/23 11:03:38;;;;;;;7.92;6.75;;;;;;;38.62;27.50;97041.05;1573056;91;27400;-76
2022/07/23 11:06:06;;;;;;;11.28;6.47;;;;;;;38.65;27.39;97040.83;1572696;91;25948;-79
2022/07/23 11:08:32;;;;;;;7.08;6.42;;;;;;;38.62;27.64;97038.23;1573056;91;25764;-76
2022/07/23 11:11:08;;;;;;;8.13;6.50;;;;;;;38.59;27.28;97030.57;1573020;91;26055;-77
2022/07/23 11:13:47;;;;;;;7.35;6.65;;;;;;;38.46;27.27;97025.91;1572983;91;25759;-77
2022/07/23 11:16:21;;;;;;;8.18;6.30;;;;;;;38.52;27.70;97031.97;1573021;91;27478;-78
2022/07/23 11:18:55;;;;;;;8.45;6.80;;;;;;;38.58;27.30;97024.73;1531156;93;25926;-77
2022/07/23 11:21:27;;;;;;;6.78;6.15;;;;;;;38.51;26.76;97028.95;1531345;93;25994;-78
2022/07/23 11:24:13;;;;;;;9.08;6.90;;;;;;;38.42;27.25;97022.88;1561076;90;26602;-78
2022/07/23 11:26:53;;;;;;;7.97;6.95;;;;;;;38.40;26.92;97025.33;1580641;90;25556;-78
2022/07/23 11:29:35;;;;;;;9.03;7.87;;;;;;;38.37;26.93;97020.48;1580857;90;27614;-77
2022/07/23 11:32:09;;;;;;;7.53;6.83;;;;;;;38.36;27.10;97016.86;1580897;90;25512;-78
2022/07/23 11:34:43;;;;;;;7.42;6.47;;;;;;;38.30;27.19;97014.83;1549598;92;25424;-78